sensor_id;sensor_type;location;lat;lon;timestamp;P1;durP1;ratioP1;P2;durP2;ratioP2
13743;SDS011;6943;52.368;9.966;2024-03-06T00:00:14;17.37;;;11.10;;
13743;SDS011;6943;52.368;9.966;2024-03-06T00:02:40;17.77;;;11.63;;
13743;SDS011;6943;52.368;9.966;2024-03-06T00:05:06;13.50;;;10.97;;
13743;SDS011;6943;52.368;9.966;2024-03-06T00:07:32;13.80;;;11.13;;
13743;SDS011;6943;52.368;9.966;2024-03-06T00:09:58;17.27;;;10.73;;
13743;SDS011;6943;52.368;9.966;2024-03-06T00:12:24;14.00;;;11.00;;
13743;SDS011;6943;52.368;9.966;2024-03-06T00:14:50;15.70;;;11.60;;
13743;SDS011;6943;52.368;9.966;2024-03-06T00:17:16;17.13;;;12.27;;
13743;SDS011;6943;52.368;9.966;2024-03-06T00:19:42;13.60;;;10.10;;
13743;SDS011;6943;52.368;9.966;2024-03-06T00:22:09;16.60;;;12.30;;
13743;SDS011;6943;52.368;9.966;2024-03-06T00:24:35;17.50;;;11.73;;
13743;SDS011;6943;52.368;9.966;2024-03-06T00:27:00;18.07;;;12.13;;
13743;SDS011;6943;52.368;9.966;2024-03-06T00:29:26;16.60;;;11.50;;
13743;SDS011;6943;52.368;9.966;2024-03-06T00:31:52;17.33;;;12.00;;
13743;SDS011;6943;52.368;9.966;2024-03-06T00:34:18;14.73;;;12.20;;
13743;SDS011;6943;52.368;9.966;2024-03-06T00:36:45;17.63;;;11.00;;
13743;SDS011;6943;52.368;9.966;2024-03-06T00:39:11;15.27;;;11.60;;
13743;SDS011;6943;52.368;9.966;2024-03-06T00:41:39;15.93;;;12.93;;
13743;SDS011;6943;52.368;9.966;2024-03-06T00:44:05;14.70;;;11.87;;
13743;SDS011;6943;52.368;9.966;2024-03-06T00:46:31;19.13;;;12.70;;
13743;SDS011;6943;52.368;9.966;2024-03-06T00:48:57;17.50;;;12.70;;
13743;SDS011;6943;52.368;9.966;2024-03-06T00:51:23;17.97;;;11.57;;
13743;SDS011;6943;52.368;9.966;2024-03-06T00:53:49;19.90;;;13.03;;
13743;SDS011;6943;52.368;9.966;2024-03-06T00:56:15;18.90;;;12.57;;
13743;SDS011;6943;52.368;9.966;2024-03-06T00:58:41;17.27;;;12.20;;
13743;SDS011;6943;52.368;9.966;2024-03-06T01:01:07;19.27;;;12.43;;
13743;SDS011;6943;52.368;9.966;2024-03-06T01:03:32;16.30;;;12.57;;
13743;SDS011;6943;52.368;9.966;2024-03-06T01:05:58;17.07;;;12.40;;
13743;SDS011;6943;52.368;9.966;2024-03-06T01:08:24;17.73;;;12.03;;
13743;SDS011;6943;52.368;9.966;2024-03-06T01:10:53;16.83;;;11.43;;
13743;SDS011;6943;52.368;9.966;2024-03-06T01:13:19;21.30;;;13.97;;
13743;SDS011;6943;52.368;9.966;2024-03-06T01:15:45;18.80;;;12.33;;
13743;SDS011;6943;52.368;9.966;2024-03-06T01:18:11;16.67;;;12.07;;
13743;SDS011;6943;52.368;9.966;2024-03-06T01:20:37;16.73;;;12.77;;
13743;SDS011;6943;52.368;9.966;2024-03-06T01:23:03;19.23;;;12.90;;
13743;SDS011;6943;52.368;9.966;2024-03-06T01:25:29;18.63;;;12.97;;
13743;SDS011;6943;52.368;9.966;2024-03-06T01:27:55;18.83;;;12.93;;
13743;SDS011;6943;52.368;9.966;2024-03-06T01:30:21;19.57;;;12.67;;
13743;SDS011;6943;52.368;9.966;2024-03-06T01:32:47;18.40;;;13.03;;
13743;SDS011;6943;52.368;9.966;2024-03-06T01:35:13;17.47;;;12.60;;
13743;SDS011;6943;52.368;9.966;2024-03-06T01:37:39;16.77;;;12.53;;
13743;SDS011;6943;52.368;9.966;2024-03-06T01:40:05;19.67;;;14.00;;
13743;SDS011;6943;52.368;9.966;2024-03-06T01:42:32;16.67;;;11.67;;
13743;SDS011;6943;52.368;9.966;2024-03-06T01:44:58;16.93;;;12.97;;
13743;SDS011;6943;52.368;9.966;2024-03-06T01:47:24;16.17;;;12.07;;
13743;SDS011;6943;52.368;9.966;2024-03-06T01:49:50;17.77;;;13.93;;
13743;SDS011;6943;52.368;9.966;2024-03-06T01:52:16;19.97;;;13.27;;
13743;SDS011;6943;52.368;9.966;2024-03-06T01:54:44;19.07;;;12.70;;
13743;SDS011;6943;52.368;9.966;2024-03-06T01:57:10;17.83;;;13.33;;
13743;SDS011;6943;52.368;9.966;2024-03-06T01:59:39;18.37;;;13.07;;
13743;SDS011;6943;52.368;9.966;2024-03-06T02:02:06;17.63;;;12.70;;
13743;SDS011;6943;52.368;9.966;2024-03-06T02:04:33;18.60;;;13.57;;
13743;SDS011;6943;52.368;9.966;2024-03-06T02:06:59;18.00;;;12.37;;
13743;SDS011;6943;52.368;9.966;2024-03-06T02:09:25;17.80;;;12.93;;
13743;SDS011;6943;52.368;9.966;2024-03-06T02:11:51;16.73;;;12.73;;
13743;SDS011;6943;52.368;9.966;2024-03-06T02:14:17;17.03;;;11.57;;
13743;SDS011;6943;52.368;9.966;2024-03-06T02:16:43;17.77;;;12.27;;
13743;SDS011;6943;52.368;9.966;2024-03-06T02:19:09;21.23;;;14.00;;
13743;SDS011;6943;52.368;9.966;2024-03-06T02:21:34;18.53;;;13.60;;
13743;SDS011;6943;52.368;9.966;2024-03-06T02:24:00;20.10;;;13.60;;
13743;SDS011;6943;52.368;9.966;2024-03-06T02:26:26;20.20;;;12.97;;
13743;SDS011;6943;52.368;9.966;2024-03-06T02:28:53;17.03;;;13.00;;
13743;SDS011;6943;52.368;9.966;2024-03-06T02:31:20;18.20;;;12.70;;
13743;SDS011;6943;52.368;9.966;2024-03-06T02:33:46;16.53;;;12.50;;
13743;SDS011;6943;52.368;9.966;2024-03-06T02:36:16;18.57;;;12.87;;
13743;SDS011;6943;52.368;9.966;2024-03-06T02:38:42;18.37;;;13.00;;
13743;SDS011;6943;52.368;9.966;2024-03-06T02:41:08;17.73;;;13.03;;
13743;SDS011;6943;52.368;9.966;2024-03-06T02:43:35;17.13;;;12.13;;
13743;SDS011;6943;52.368;9.966;2024-03-06T02:46:01;16.57;;;12.43;;
13743;SDS011;6943;52.368;9.966;2024-03-06T02:48:27;18.90;;;13.30;;
13743;SDS011;6943;52.368;9.966;2024-03-06T02:50:53;19.03;;;12.97;;
13743;SDS011;6943;52.368;9.966;2024-03-06T02:53:19;16.13;;;12.50;;
13743;SDS011;6943;52.368;9.966;2024-03-06T02:55:45;18.93;;;12.87;;
13743;SDS011;6943;52.368;9.966;2024-03-06T02:58:11;19.10;;;13.83;;
13743;SDS011;6943;52.368;9.966;2024-03-06T03:00:39;17.03;;;13.20;;
13743;SDS011;6943;52.368;9.966;2024-03-06T03:03:05;19.97;;;13.40;;
13743;SDS011;6943;52.368;9.966;2024-03-06T03:05:31;17.90;;;12.93;;
13743;SDS011;6943;52.368;9.966;2024-03-06T03:07:58;18.90;;;12.50;;
13743;SDS011;6943;52.368;9.966;2024-03-06T03:10:24;18.90;;;13.27;;
13743;SDS011;6943;52.368;9.966;2024-03-06T03:12:50;18.60;;;13.30;;
13743;SDS011;6943;52.368;9.966;2024-03-06T03:15:16;19.97;;;14.50;;
13743;SDS011;6943;52.368;9.966;2024-03-06T03:17:42;16.73;;;12.93;;
13743;SDS011;6943;52.368;9.966;2024-03-06T03:20:08;15.37;;;12.60;;
13743;SDS011;6943;52.368;9.966;2024-03-06T03:22:38;19.70;;;13.07;;
13743;SDS011;6943;52.368;9.966;2024-03-06T03:25:06;15.00;;;10.67;;
13743;SDS011;6943;52.368;9.966;2024-03-06T03:27:33;18.23;;;13.53;;
13743;SDS011;6943;52.368;9.966;2024-03-06T03:29:59;16.60;;;12.47;;
13743;SDS011;6943;52.368;9.966;2024-03-06T03:32:24;18.57;;;13.47;;
13743;SDS011;6943;52.368;9.966;2024-03-06T03:34:50;20.57;;;13.10;;
13743;SDS011;6943;52.368;9.966;2024-03-06T03:37:16;18.07;;;12.60;;
13743;SDS011;6943;52.368;9.966;2024-03-06T03:39:45;18.67;;;12.67;;
13743;SDS011;6943;52.368;9.966;2024-03-06T03:42:11;24.80;;;14.03;;
13743;SDS011;6943;52.368;9.966;2024-03-06T03:44:37;20.03;;;13.50;;
13743;SDS011;6943;52.368;9.966;2024-03-06T03:47:04;16.57;;;12.73;;
13743;SDS011;6943;52.368;9.966;2024-03-06T03:49:30;19.13;;;13.67;;
13743;SDS011;6943;52.368;9.966;2024-03-06T03:51:56;23.97;;;13.83;;
13743;SDS011;6943;52.368;9.966;2024-03-06T03:54:22;23.03;;;14.03;;
13743;SDS011;6943;52.368;9.966;2024-03-06T03:56:48;20.13;;;13.43;;
13743;SDS011;6943;52.368;9.966;2024-03-06T03:59:14;18.23;;;13.20;;
13743;SDS011;6943;52.368;9.966;2024-03-06T04:01:40;19.20;;;12.80;;
13743;SDS011;6943;52.368;9.966;2024-03-06T04:04:06;21.23;;;14.33;;
13743;SDS011;6943;52.368;9.966;2024-03-06T04:06:33;20.80;;;13.30;;
13743;SDS011;6943;52.368;9.966;2024-03-06T04:08:59;18.70;;;13.70;;
13743;SDS011;6943;52.368;9.966;2024-03-06T04:11:25;18.07;;;13.20;;
13743;SDS011;6943;52.368;9.966;2024-03-06T04:13:52;20.53;;;13.37;;
13743;SDS011;6943;52.368;9.966;2024-03-06T04:16:18;19.97;;;13.77;;
13743;SDS011;6943;52.368;9.966;2024-03-06T04:18:44;19.23;;;14.33;;
13743;SDS011;6943;52.368;9.966;2024-03-06T04:21:10;18.37;;;13.60;;
13743;SDS011;6943;52.368;9.966;2024-03-06T04:23:36;22.73;;;15.17;;
13743;SDS011;6943;52.368;9.966;2024-03-06T04:26:02;19.87;;;13.90;;
13743;SDS011;6943;52.368;9.966;2024-03-06T04:28:28;17.40;;;12.90;;
13743;SDS011;6943;52.368;9.966;2024-03-06T04:30:55;22.57;;;14.90;;
13743;SDS011;6943;52.368;9.966;2024-03-06T04:33:21;22.87;;;14.43;;
13743;SDS011;6943;52.368;9.966;2024-03-06T04:35:47;25.93;;;14.83;;
13743;SDS011;6943;52.368;9.966;2024-03-06T04:38:13;20.43;;;14.80;;
13743;SDS011;6943;52.368;9.966;2024-03-06T04:40:39;20.50;;;13.87;;
13743;SDS011;6943;52.368;9.966;2024-03-06T04:43:05;18.50;;;13.67;;
13743;SDS011;6943;52.368;9.966;2024-03-06T04:45:34;22.37;;;14.47;;
13743;SDS011;6943;52.368;9.966;2024-03-06T04:48:00;19.73;;;14.47;;
13743;SDS011;6943;52.368;9.966;2024-03-06T04:50:26;20.50;;;14.33;;
13743;SDS011;6943;52.368;9.966;2024-03-06T04:52:52;19.17;;;13.40;;
13743;SDS011;6943;52.368;9.966;2024-03-06T04:55:18;17.67;;;14.00;;
13743;SDS011;6943;52.368;9.966;2024-03-06T04:57:47;20.63;;;14.73;;
13743;SDS011;6943;52.368;9.966;2024-03-06T05:00:13;19.83;;;14.33;;
13743;SDS011;6943;52.368;9.966;2024-03-06T05:02:39;20.73;;;14.27;;
13743;SDS011;6943;52.368;9.966;2024-03-06T05:05:07;19.03;;;13.77;;
13743;SDS011;6943;52.368;9.966;2024-03-06T05:07:33;19.83;;;13.33;;
13743;SDS011;6943;52.368;9.966;2024-03-06T05:09:59;21.53;;;15.07;;
13743;SDS011;6943;52.368;9.966;2024-03-06T05:12:25;20.20;;;14.53;;
13743;SDS011;6943;52.368;9.966;2024-03-06T05:14:52;22.93;;;15.07;;
13743;SDS011;6943;52.368;9.966;2024-03-06T05:17:18;19.60;;;14.20;;
13743;SDS011;6943;52.368;9.966;2024-03-06T05:19:45;20.63;;;14.87;;
13743;SDS011;6943;52.368;9.966;2024-03-06T05:22:12;21.40;;;14.00;;
13743;SDS011;6943;52.368;9.966;2024-03-06T05:24:38;24.20;;;15.63;;
13743;SDS011;6943;52.368;9.966;2024-03-06T05:27:04;19.70;;;14.37;;
13743;SDS011;6943;52.368;9.966;2024-03-06T05:29:30;21.70;;;15.17;;
13743;SDS011;6943;52.368;9.966;2024-03-06T05:31:56;20.47;;;14.60;;
13743;SDS011;6943;52.368;9.966;2024-03-06T05:34:22;19.70;;;15.23;;
13743;SDS011;6943;52.368;9.966;2024-03-06T05:36:48;19.07;;;14.27;;
13743;SDS011;6943;52.368;9.966;2024-03-06T05:39:14;19.63;;;14.50;;
13743;SDS011;6943;52.368;9.966;2024-03-06T05:41:40;22.07;;;14.73;;
13743;SDS011;6943;52.368;9.966;2024-03-06T05:44:06;21.00;;;14.43;;
13743;SDS011;6943;52.368;9.966;2024-03-06T05:46:33;20.37;;;14.60;;
13743;SDS011;6943;52.368;9.966;2024-03-06T05:48:58;19.83;;;14.87;;
13743;SDS011;6943;52.368;9.966;2024-03-06T05:51:26;19.10;;;14.07;;
13743;SDS011;6943;52.368;9.966;2024-03-06T05:53:52;22.40;;;14.17;;
13743;SDS011;6943;52.368;9.966;2024-03-06T05:56:18;25.77;;;16.27;;
13743;SDS011;6943;52.368;9.966;2024-03-06T05:58:44;22.27;;;15.13;;
13743;SDS011;6943;52.368;9.966;2024-03-06T06:01:12;22.47;;;14.53;;
13743;SDS011;6943;52.368;9.966;2024-03-06T06:03:38;23.57;;;15.50;;
13743;SDS011;6943;52.368;9.966;2024-03-06T06:06:04;22.70;;;15.47;;
13743;SDS011;6943;52.368;9.966;2024-03-06T06:08:30;20.87;;;15.03;;
13743;SDS011;6943;52.368;9.966;2024-03-06T06:10:56;22.37;;;15.10;;
13743;SDS011;6943;52.368;9.966;2024-03-06T06:13:22;18.10;;;13.67;;
13743;SDS011;6943;52.368;9.966;2024-03-06T06:15:48;20.30;;;15.27;;
13743;SDS011;6943;52.368;9.966;2024-03-06T06:18:14;20.60;;;15.33;;
13743;SDS011;6943;52.368;9.966;2024-03-06T06:20:41;22.67;;;15.53;;
13743;SDS011;6943;52.368;9.966;2024-03-06T06:23:07;20.63;;;14.07;;
13743;SDS011;6943;52.368;9.966;2024-03-06T06:25:33;25.07;;;15.07;;
13743;SDS011;6943;52.368;9.966;2024-03-06T06:28:00;21.90;;;14.83;;
13743;SDS011;6943;52.368;9.966;2024-03-06T06:30:25;21.87;;;15.33;;
13743;SDS011;6943;52.368;9.966;2024-03-06T06:32:51;21.80;;;15.07;;
13743;SDS011;6943;52.368;9.966;2024-03-06T06:35:17;22.83;;;16.00;;
13743;SDS011;6943;52.368;9.966;2024-03-06T06:37:44;23.93;;;15.57;;
13743;SDS011;6943;52.368;9.966;2024-03-06T06:40:11;19.27;;;15.60;;
13743;SDS011;6943;52.368;9.966;2024-03-06T06:42:37;23.03;;;14.17;;
13743;SDS011;6943;52.368;9.966;2024-03-06T06:45:03;19.67;;;14.37;;
13743;SDS011;6943;52.368;9.966;2024-03-06T06:47:31;25.00;;;16.43;;
13743;SDS011;6943;52.368;9.966;2024-03-06T06:49:57;22.50;;;15.43;;
13743;SDS011;6943;52.368;9.966;2024-03-06T06:52:23;24.10;;;16.53;;
13743;SDS011;6943;52.368;9.966;2024-03-06T06:54:52;25.23;;;15.30;;
13743;SDS011;6943;52.368;9.966;2024-03-06T06:57:18;22.13;;;14.97;;
13743;SDS011;6943;52.368;9.966;2024-03-06T06:59:44;24.80;;;14.13;;
13743;SDS011;6943;52.368;9.966;2024-03-06T07:02:11;20.23;;;14.83;;
13743;SDS011;6943;52.368;9.966;2024-03-06T07:04:36;24.20;;;15.87;;
13743;SDS011;6943;52.368;9.966;2024-03-06T07:07:02;20.80;;;14.70;;
13743;SDS011;6943;52.368;9.966;2024-03-06T07:09:28;21.93;;;14.30;;
13743;SDS011;6943;52.368;9.966;2024-03-06T07:11:55;23.30;;;14.90;;
13743;SDS011;6943;52.368;9.966;2024-03-06T07:14:21;20.33;;;13.87;;
13743;SDS011;6943;52.368;9.966;2024-03-06T07:16:47;19.93;;;14.20;;
13743;SDS011;6943;52.368;9.966;2024-03-06T07:19:13;20.67;;;15.33;;
13743;SDS011;6943;52.368;9.966;2024-03-06T07:21:39;19.03;;;14.00;;
13743;SDS011;6943;52.368;9.966;2024-03-06T07:24:05;22.97;;;14.37;;
13743;SDS011;6943;52.368;9.966;2024-03-06T07:26:34;21.77;;;14.73;;
13743;SDS011;6943;52.368;9.966;2024-03-06T07:29:00;23.80;;;15.90;;
13743;SDS011;6943;52.368;9.966;2024-03-06T07:31:26;21.73;;;14.50;;
13743;SDS011;6943;52.368;9.966;2024-03-06T07:33:52;24.87;;;13.57;;
13743;SDS011;6943;52.368;9.966;2024-03-06T07:36:18;20.40;;;15.83;;
13743;SDS011;6943;52.368;9.966;2024-03-06T07:38:44;21.07;;;14.77;;
13743;SDS011;6943;52.368;9.966;2024-03-06T07:41:10;20.23;;;14.70;;
13743;SDS011;6943;52.368;9.966;2024-03-06T07:43:37;18.03;;;13.37;;
13743;SDS011;6943;52.368;9.966;2024-03-06T07:46:03;20.53;;;14.40;;
13743;SDS011;6943;52.368;9.966;2024-03-06T07:48:35;20.43;;;14.37;;
13743;SDS011;6943;52.368;9.966;2024-03-06T07:51:01;24.90;;;14.73;;
13743;SDS011;6943;52.368;9.966;2024-03-06T07:53:27;21.27;;;14.70;;
13743;SDS011;6943;52.368;9.966;2024-03-06T07:55:52;20.30;;;14.53;;
13743;SDS011;6943;52.368;9.966;2024-03-06T07:58:18;21.13;;;15.23;;
13743;SDS011;6943;52.368;9.966;2024-03-06T08:00:46;21.40;;;14.40;;
13743;SDS011;6943;52.368;9.966;2024-03-06T08:03:12;19.37;;;14.47;;
13743;SDS011;6943;52.368;9.966;2024-03-06T08:05:38;21.80;;;14.93;;
13743;SDS011;6943;52.368;9.966;2024-03-06T08:08:04;20.80;;;15.67;;
13743;SDS011;6943;52.368;9.966;2024-03-06T08:10:30;24.07;;;15.17;;
13743;SDS011;6943;52.368;9.966;2024-03-06T08:12:56;22.00;;;15.17;;
13743;SDS011;6943;52.368;9.966;2024-03-06T08:15:22;26.77;;;16.30;;
13743;SDS011;6943;52.368;9.966;2024-03-06T08:17:49;21.90;;;15.77;;
13743;SDS011;6943;52.368;9.966;2024-03-06T08:20:16;21.80;;;15.57;;
13743;SDS011;6943;52.368;9.966;2024-03-06T08:22:42;24.60;;;17.07;;
13743;SDS011;6943;52.368;9.966;2024-03-06T08:25:09;26.00;;;16.30;;
13743;SDS011;6943;52.368;9.966;2024-03-06T08:27:35;23.87;;;17.00;;
13743;SDS011;6943;52.368;9.966;2024-03-06T08:30:02;23.00;;;16.07;;
13743;SDS011;6943;52.368;9.966;2024-03-06T08:32:29;22.57;;;15.83;;
13743;SDS011;6943;52.368;9.966;2024-03-06T08:34:56;22.93;;;16.33;;
13743;SDS011;6943;52.368;9.966;2024-03-06T08:37:22;20.67;;;15.27;;
13743;SDS011;6943;52.368;9.966;2024-03-06T08:39:48;23.07;;;15.87;;
13743;SDS011;6943;52.368;9.966;2024-03-06T08:42:14;21.70;;;16.20;;
13743;SDS011;6943;52.368;9.966;2024-03-06T08:44:43;21.93;;;16.17;;
13743;SDS011;6943;52.368;9.966;2024-03-06T08:47:09;22.70;;;16.53;;
13743;SDS011;6943;52.368;9.966;2024-03-06T08:49:35;22.20;;;15.77;;
13743;SDS011;6943;52.368;9.966;2024-03-06T08:52:01;25.57;;;15.50;;
13743;SDS011;6943;52.368;9.966;2024-03-06T08:54:28;25.33;;;15.63;;
13743;SDS011;6943;52.368;9.966;2024-03-06T08:56:56;23.70;;;17.13;;
13743;SDS011;6943;52.368;9.966;2024-03-06T08:59:24;24.17;;;16.30;;
13743;SDS011;6943;52.368;9.966;2024-03-06T09:01:51;22.53;;;16.33;;
13743;SDS011;6943;52.368;9.966;2024-03-06T09:04:18;24.10;;;16.53;;
13743;SDS011;6943;52.368;9.966;2024-03-06T09:06:44;20.93;;;15.73;;
13743;SDS011;6943;52.368;9.966;2024-03-06T09:09:10;19.87;;;14.17;;
13743;SDS011;6943;52.368;9.966;2024-03-06T09:11:39;20.27;;;15.13;;
13743;SDS011;6943;52.368;9.966;2024-03-06T09:14:05;23.83;;;16.23;;
13743;SDS011;6943;52.368;9.966;2024-03-06T09:16:31;23.63;;;16.90;;
13743;SDS011;6943;52.368;9.966;2024-03-06T09:18:57;26.23;;;16.37;;
13743;SDS011;6943;52.368;9.966;2024-03-06T09:21:24;22.20;;;16.93;;
13743;SDS011;6943;52.368;9.966;2024-03-06T09:23:50;22.97;;;16.87;;
13743;SDS011;6943;52.368;9.966;2024-03-06T09:26:17;24.13;;;16.50;;
13743;SDS011;6943;52.368;9.966;2024-03-06T09:28:45;22.10;;;16.47;;
13743;SDS011;6943;52.368;9.966;2024-03-06T09:31:11;21.23;;;15.13;;
13743;SDS011;6943;52.368;9.966;2024-03-06T09:33:38;25.83;;;17.77;;
13743;SDS011;6943;52.368;9.966;2024-03-06T09:36:04;22.70;;;16.80;;
13743;SDS011;6943;52.368;9.966;2024-03-06T09:38:30;22.03;;;16.53;;
13743;SDS011;6943;52.368;9.966;2024-03-06T09:40:57;22.23;;;16.53;;
13743;SDS011;6943;52.368;9.966;2024-03-06T09:43:24;23.00;;;17.03;;
13743;SDS011;6943;52.368;9.966;2024-03-06T09:45:50;28.63;;;17.23;;
13743;SDS011;6943;52.368;9.966;2024-03-06T09:48:16;24.93;;;17.80;;
13743;SDS011;6943;52.368;9.966;2024-03-06T09:50:43;24.77;;;17.50;;
13743;SDS011;6943;52.368;9.966;2024-03-06T09:53:11;24.77;;;17.23;;
13743;SDS011;6943;52.368;9.966;2024-03-06T09:55:38;24.77;;;18.43;;
13743;SDS011;6943;52.368;9.966;2024-03-06T09:58:04;26.40;;;17.30;;
13743;SDS011;6943;52.368;9.966;2024-03-06T10:00:30;24.73;;;18.67;;
13743;SDS011;6943;52.368;9.966;2024-03-06T10:02:57;22.27;;;17.67;;
13743;SDS011;6943;52.368;9.966;2024-03-06T10:05:25;24.47;;;16.83;;
13743;SDS011;6943;52.368;9.966;2024-03-06T10:07:52;24.10;;;17.20;;
13743;SDS011;6943;52.368;9.966;2024-03-06T10:10:18;23.90;;;17.93;;
13743;SDS011;6943;52.368;9.966;2024-03-06T10:12:45;20.90;;;16.07;;
13743;SDS011;6943;52.368;9.966;2024-03-06T10:15:12;23.00;;;16.17;;
13743;SDS011;6943;52.368;9.966;2024-03-06T10:17:38;23.43;;;16.87;;
13743;SDS011;6943;52.368;9.966;2024-03-06T10:20:16;24.43;;;17.50;;
13743;SDS011;6943;52.368;9.966;2024-03-06T10:22:44;25.03;;;16.57;;
13743;SDS011;6943;52.368;9.966;2024-03-06T10:25:12;24.43;;;17.90;;
13743;SDS011;6943;52.368;9.966;2024-03-06T10:27:37;24.40;;;16.90;;
13743;SDS011;6943;52.368;9.966;2024-03-06T10:30:03;24.07;;;16.97;;
13743;SDS011;6943;52.368;9.966;2024-03-06T10:32:31;24.30;;;16.47;;
13743;SDS011;6943;52.368;9.966;2024-03-06T10:34:56;21.40;;;17.37;;
13743;SDS011;6943;52.368;9.966;2024-03-06T10:37:22;23.93;;;17.03;;
13743;SDS011;6943;52.368;9.966;2024-03-06T10:39:49;24.37;;;16.13;;
13743;SDS011;6943;52.368;9.966;2024-03-06T10:42:19;22.80;;;16.00;;
13743;SDS011;6943;52.368;9.966;2024-03-06T10:44:51;24.00;;;17.43;;
13743;SDS011;6943;52.368;9.966;2024-03-06T10:47:18;27.07;;;18.33;;
13743;SDS011;6943;52.368;9.966;2024-03-06T10:49:44;24.60;;;17.87;;
13743;SDS011;6943;52.368;9.966;2024-03-06T10:52:11;26.07;;;17.30;;
13743;SDS011;6943;52.368;9.966;2024-03-06T10:54:37;22.93;;;16.73;;
13743;SDS011;6943;52.368;9.966;2024-03-06T10:57:06;25.77;;;17.63;;
13743;SDS011;6943;52.368;9.966;2024-03-06T10:59:33;21.50;;;16.73;;
13743;SDS011;6943;52.368;9.966;2024-03-06T11:02:00;20.83;;;16.60;;
13743;SDS011;6943;52.368;9.966;2024-03-06T11:04:26;21.63;;;15.93;;
13743;SDS011;6943;52.368;9.966;2024-03-06T11:06:59;23.43;;;17.27;;
13743;SDS011;6943;52.368;9.966;2024-03-06T11:09:26;23.83;;;17.20;;
13743;SDS011;6943;52.368;9.966;2024-03-06T11:11:53;26.30;;;18.00;;
13743;SDS011;6943;52.368;9.966;2024-03-06T11:14:23;22.43;;;16.87;;
13743;SDS011;6943;52.368;9.966;2024-03-06T11:17:02;31.67;;;17.67;;
13743;SDS011;6943;52.368;9.966;2024-03-06T11:19:31;19.83;;;16.40;;
13743;SDS011;6943;52.368;9.966;2024-03-06T11:21:58;19.40;;;15.67;;
13743;SDS011;6943;52.368;9.966;2024-03-06T11:24:34;19.90;;;16.07;;
13743;SDS011;6943;52.368;9.966;2024-03-06T11:27:00;29.83;;;15.70;;
13743;SDS011;6943;52.368;9.966;2024-03-06T11:29:28;21.53;;;16.87;;
13743;SDS011;6943;52.368;9.966;2024-03-06T11:32:06;22.50;;;16.90;;
13743;SDS011;6943;52.368;9.966;2024-03-06T11:34:33;22.33;;;15.97;;
13743;SDS011;6943;52.368;9.966;2024-03-06T11:36:59;23.07;;;16.07;;
13743;SDS011;6943;52.368;9.966;2024-03-06T11:39:32;24.03;;;16.70;;
13743;SDS011;6943;52.368;9.966;2024-03-06T11:41:59;23.00;;;16.57;;
13743;SDS011;6943;52.368;9.966;2024-03-06T11:44:26;27.17;;;16.77;;
13743;SDS011;6943;52.368;9.966;2024-03-06T11:47:02;22.43;;;17.43;;
13743;SDS011;6943;52.368;9.966;2024-03-06T11:49:30;25.43;;;17.07;;
13743;SDS011;6943;52.368;9.966;2024-03-06T11:52:05;23.97;;;17.63;;
13743;SDS011;6943;52.368;9.966;2024-03-06T11:54:33;21.13;;;16.90;;
13743;SDS011;6943;52.368;9.966;2024-03-06T11:56:59;25.50;;;17.90;;
13743;SDS011;6943;52.368;9.966;2024-03-06T11:59:26;24.47;;;17.33;;
13743;SDS011;6943;52.368;9.966;2024-03-06T12:01:53;23.63;;;17.30;;
13743;SDS011;6943;52.368;9.966;2024-03-06T12:04:20;23.83;;;17.00;;
13743;SDS011;6943;52.368;9.966;2024-03-06T12:06:47;23.40;;;18.57;;
13743;SDS011;6943;52.368;9.966;2024-03-06T12:09:12;23.27;;;17.20;;
13743;SDS011;6943;52.368;9.966;2024-03-06T12:11:39;22.17;;;17.10;;
13743;SDS011;6943;52.368;9.966;2024-03-06T12:14:08;22.30;;;18.03;;
13743;SDS011;6943;52.368;9.966;2024-03-06T12:16:38;27.27;;;17.13;;
13743;SDS011;6943;52.368;9.966;2024-03-06T12:19:03;27.27;;;17.83;;
13743;SDS011;6943;52.368;9.966;2024-03-06T12:21:33;28.53;;;18.60;;
13743;SDS011;6943;52.368;9.966;2024-03-06T12:24:05;24.23;;;18.30;;
13743;SDS011;6943;52.368;9.966;2024-03-06T12:26:32;25.13;;;18.03;;
13743;SDS011;6943;52.368;9.966;2024-03-06T12:29:08;24.97;;;18.23;;
13743;SDS011;6943;52.368;9.966;2024-03-06T12:31:35;22.07;;;17.27;;
13743;SDS011;6943;52.368;9.966;2024-03-06T12:34:01;24.67;;;18.60;;
13743;SDS011;6943;52.368;9.966;2024-03-06T12:36:28;22.90;;;18.10;;
13743;SDS011;6943;52.368;9.966;2024-03-06T12:39:01;23.30;;;17.50;;
13743;SDS011;6943;52.368;9.966;2024-03-06T12:41:28;26.90;;;18.20;;
13743;SDS011;6943;52.368;9.966;2024-03-06T12:43:54;26.17;;;17.63;;
13743;SDS011;6943;52.368;9.966;2024-03-06T12:46:21;26.53;;;18.43;;
13743;SDS011;6943;52.368;9.966;2024-03-06T12:48:47;25.10;;;17.73;;
13743;SDS011;6943;52.368;9.966;2024-03-06T12:51:12;22.83;;;18.43;;
13743;SDS011;6943;52.368;9.966;2024-03-06T12:53:38;22.40;;;18.17;;
13743;SDS011;6943;52.368;9.966;2024-03-06T12:56:05;24.90;;;17.27;;
13743;SDS011;6943;52.368;9.966;2024-03-06T12:58:31;23.80;;;17.53;;
13743;SDS011;6943;52.368;9.966;2024-03-06T13:00:56;23.07;;;16.40;;
13743;SDS011;6943;52.368;9.966;2024-03-06T13:03:23;25.93;;;18.27;;
13743;SDS011;6943;52.368;9.966;2024-03-06T13:05:48;21.67;;;18.10;;
13743;SDS011;6943;52.368;9.966;2024-03-06T13:08:14;24.97;;;17.50;;
13743;SDS011;6943;52.368;9.966;2024-03-06T13:10:40;26.33;;;18.23;;
13743;SDS011;6943;52.368;9.966;2024-03-06T13:13:06;22.67;;;16.00;;
13743;SDS011;6943;52.368;9.966;2024-03-06T13:15:32;23.40;;;17.23;;
13743;SDS011;6943;52.368;9.966;2024-03-06T13:17:59;23.07;;;16.60;;
13743;SDS011;6943;52.368;9.966;2024-03-06T13:20:28;22.27;;;17.10;;
13743;SDS011;6943;52.368;9.966;2024-03-06T13:22:54;24.73;;;17.70;;
13743;SDS011;6943;52.368;9.966;2024-03-06T13:25:20;24.03;;;16.87;;
13743;SDS011;6943;52.368;9.966;2024-03-06T13:27:46;21.67;;;16.87;;
13743;SDS011;6943;52.368;9.966;2024-03-06T13:30:11;24.17;;;18.07;;
13743;SDS011;6943;52.368;9.966;2024-03-06T13:32:37;20.43;;;15.83;;
13743;SDS011;6943;52.368;9.966;2024-03-06T13:35:03;19.90;;;15.43;;
13743;SDS011;6943;52.368;9.966;2024-03-06T13:37:31;23.43;;;16.40;;
13743;SDS011;6943;52.368;9.966;2024-03-06T13:39:57;22.73;;;15.43;;
13743;SDS011;6943;52.368;9.966;2024-03-06T13:42:25;21.60;;;16.47;;
13743;SDS011;6943;52.368;9.966;2024-03-06T13:44:51;26.17;;;16.97;;
13743;SDS011;6943;52.368;9.966;2024-03-06T13:47:17;22.40;;;16.10;;
13743;SDS011;6943;52.368;9.966;2024-03-06T13:49:42;18.20;;;15.57;;
13743;SDS011;6943;52.368;9.966;2024-03-06T13:52:08;22.90;;;17.33;;
13743;SDS011;6943;52.368;9.966;2024-03-06T13:54:38;20.10;;;15.53;;
13743;SDS011;6943;52.368;9.966;2024-03-06T13:57:04;22.97;;;16.67;;
13743;SDS011;6943;52.368;9.966;2024-03-06T13:59:31;19.97;;;16.03;;
13743;SDS011;6943;52.368;9.966;2024-03-06T14:01:58;24.47;;;16.33;;
13743;SDS011;6943;52.368;9.966;2024-03-06T14:04:24;18.27;;;15.33;;
13743;SDS011;6943;52.368;9.966;2024-03-06T14:06:50;20.07;;;16.10;;
13743;SDS011;6943;52.368;9.966;2024-03-06T14:09:16;21.40;;;16.33;;
13743;SDS011;6943;52.368;9.966;2024-03-06T14:11:41;21.83;;;16.17;;
13743;SDS011;6943;52.368;9.966;2024-03-06T14:14:07;22.67;;;16.77;;
13743;SDS011;6943;52.368;9.966;2024-03-06T14:16:34;20.17;;;15.83;;
13743;SDS011;6943;52.368;9.966;2024-03-06T14:19:00;22.67;;;16.23;;
13743;SDS011;6943;52.368;9.966;2024-03-06T14:21:26;19.77;;;15.87;;
13743;SDS011;6943;52.368;9.966;2024-03-06T14:23:51;22.67;;;16.57;;
13743;SDS011;6943;52.368;9.966;2024-03-06T14:26:17;21.93;;;15.83;;
13743;SDS011;6943;52.368;9.966;2024-03-06T14:28:43;18.90;;;14.80;;